Time;durP1;ratioP1;P1;durP2;ratioP2;P2;SDS_P1;SDS_P2;PMS_P1;PMS_P2;Temp;Humidity;BMP_temperature;BMP_pressure;BME280_temperature;BME280_humidity;BME280_pressure;Samples;Min_cycle;Max_cycle;Signal;HPM_P1;HPM_P2
2022/10/19 00:01:11;;;;;;;39.10;18.33;;;10.70;99.90;;;;;;5083703;28;20544;-88
2022/10/19 00:03:37;;;;;;;33.35;18.90;;;10.70;99.90;;;;;;5099002;28;20020;-88
2022/10/19 00:06:27;;;;;;;39.40;18.17;;;10.70;99.90;;;;;;5063394;28;20019;-89
2022/10/19 00:08:55;;;;;;;33.13;16.48;;;10.70;99.90;;;;;;5074193;28;20048;-89
2022/10/19 00:11:22;;;;;;;31.67;14.80;;;10.90;99.90;;;;;;5064147;28;20034;-88
2022/10/19 00:13:48;;;;;;;34.42;13.60;;;10.90;99.90;;;;;;5066531;28;20029;-88
2022/10/19 00:16:15;;;;;;;28.73;13.35;;;10.90;99.90;;;;;;5081879;28;20028;-88
2022/10/19 00:18:43;;;;;;;34.05;14.13;;;11.10;99.90;;;;;;5070981;28;20490;-88
2022/10/19 00:21:11;;;;;;;31.08;12.65;;;11.10;99.90;;;;;;5092390;28;20110;-89
2022/10/19 00:23:37;;;;;;;29.58;12.90;;;11.10;99.90;;;;;;5067268;28;20020;-89
2022/10/19 00:26:02;;;;;;;39.08;13.35;;;11.10;99.90;;;;;;5058405;28;20016;-89
2022/10/19 00:28:29;;;;;;;29.33;13.45;;;11.20;99.90;;;;;;5063798;28;20034;-88
2022/10/19 00:30:54;;;;;;;30.65;12.57;;;11.20;99.90;;;;;;5066662;28;20035;-88
2022/10/19 00:33:21;;;;;;;30.20;13.52;;;11.20;99.90;;;;;;5082376;28;20118;-89
2022/10/19 00:35:51;;;;;;;34.13;12.48;;;11.20;99.90;;;;;;5075883;28;20031;-89
2022/10/19 00:38:18;;;;;;;30.90;13.45;;;11.20;99.90;;;;;;5095628;28;20032;-89
2022/10/19 00:40:44;;;;;;;32.60;13.48;;;11.20;99.90;;;;;;5078363;28;20494;-89
2022/10/19 00:43:30;;;;;;;35.83;15.18;;;11.30;99.90;;;;;;5095698;28;20020;-89
2022/10/19 00:45:56;;;;;;;37.45;15.13;;;11.30;99.90;;;;;;5076627;28;20037;-88
2022/10/19 00:52:13;;;;;;;38.72;17.20;;;11.40;99.90;;;;;;5062403;28;20181;-89
2022/10/19 00:54:40;;;;;;;45.47;17.65;;;11.40;99.90;;;;;;5071053;28;20050;-89
2022/10/19 00:57:07;;;;;;;46.25;17.45;;;11.40;99.90;;;;;;5063567;28;20028;-89
2022/10/19 00:59:33;;;;;;;48.13;17.80;;;11.40;99.90;;;;;;5059247;28;20475;-88
2022/10/19 01:02:01;;;;;;;39.90;18.25;;;11.40;99.90;;;;;;5070884;28;20071;-89
2022/10/19 01:04:29;;;;;;;38.35;17.20;;;11.40;99.90;;;;;;5066601;28;20151;-89
2022/10/19 01:11:13;;;;;;;42.85;17.77;;;11.40;99.90;;;;;;5058200;28;20082;-89
2022/10/19 01:13:57;;;;;;;42.63;17.50;;;11.40;99.90;;;;;;5059855;28;20476;-88
2022/10/19 01:16:39;;;;;;;52.70;18.73;;;11.40;99.90;;;;;;5080161;28;20024;-88
2022/10/19 01:19:26;;;;;;;52.20;18.45;;;11.30;99.90;;;;;;5077919;28;20081;-89
2022/10/19 01:22:10;;;;;;;48.33;17.65;;;11.30;99.90;;;;;;5061845;28;20032;-89
2022/10/19 01:25:11;;;;;;;43.10;17.08;;;11.20;99.90;;;;;;5087604;28;20024;-88
2022/10/19 01:27:48;;;;;;;47.28;17.60;;;11.30;99.90;;;;;;5050834;28;20124;-89
2022/10/19 01:30:22;;;;;;;39.25;15.60;;;11.20;99.90;;;;;;5089239;28;20499;-88
2022/10/19 01:32:51;;;;;;;42.08;16.70;;;11.20;99.90;;;;;;5097438;28;20025;-89
2022/10/19 01:35:40;;;;;;;44.45;15.75;;;11.10;99.90;;;;;;5062825;28;20030;-89
2022/10/19 01:38:11;;;;;;;39.75;16.85;;;11.00;99.90;;;;;;5078034;28;20042;-88
2022/10/19 01:40:37;;;;;;;;;;;11.00;99.90;;;;;;5061932;28;20490;-88
2022/10/19 01:43:24;;;;;;;47.28;17.30;;;11.00;99.90;;;;;;5075501;28;19908;-89
2022/10/19 01:46:05;;;;;;;46.22;17.52;;;10.90;99.90;;;;;;5080761;28;20503;-89
2022/10/19 01:48:36;;;;;;;59.03;20.00;;;11.00;99.90;;;;;;5085474;28;20038;-89
2022/10/19 01:51:17;;;;;;;52.78;20.70;;;11.00;99.90;;;;;;5075119;28;20079;-89
2022/10/19 01:53:47;;;;;;;56.80;19.15;;;11.10;99.90;;;;;;5120290;27;20040;-89
2022/10/19 01:56:16;;;;;;;64.15;20.45;;;11.10;99.90;;;;;;5074545;28;20028;-88
2022/10/19 01:59:14;;;;;;;58.33;19.30;;;11.00;99.90;;;;;;5104627;28;20020;-89
2022/10/19 02:01:44;;;;;;;56.80;18.83;;;11.00;99.90;;;;;;5076785;28;20384;-89
2022/10/19 02:04:14;;;;;;;63.00;19.15;;;11.00;99.90;;;;;;5090202;28;20052;-89
2022/10/19 02:06:40;;;;;;;64.65;21.52;;;11.00;99.90;;;;;;5077356;28;20036;-89
2022/10/19 02:09:06;;;;;;;81.30;23.13;;;10.80;99.90;;;;;;5066695;28;20027;-89
2022/10/19 02:11:32;;;;;;;74.22;24.40;;;10.90;99.90;;;;;;5079644;28;20059;-89
2022/10/19 02:14:08;;;;;;;92.35;27.10;;;10.90;99.90;;;;;;5067702;28;20431;-88
2022/10/19 02:16:41;;;;;;;86.15;25.02;;;11.00;99.90;;;;;;5064577;28;20032;-88
2022/10/19 02:19:08;;;;;;;84.40;25.08;;;11.10;99.90;;;;;;5077878;28;20066;-90
2022/10/19 02:21:35;;;;;;;74.07;23.13;;;11.10;99.90;;;;;;5065493;28;20028;-89
2022/10/19 02:24:00;;;;;;;83.75;24.70;;;11.10;99.90;;;;;;5061363;28;20027;-89
2022/10/19 02:26:26;;;;;;;78.45;23.75;;;11.10;99.90;;;;;;5074796;28;20016;-89
2022/10/19 02:28:55;;;;;;;60.88;20.60;;;11.10;99.90;;;;;;5078513;28;20035;-89
2022/10/19 02:31:21;;;;;;;61.38;21.80;;;11.10;99.90;;;;;;5085915;28;20031;-89
2022/10/19 02:33:47;;;;;;;59.45;21.83;;;11.20;99.90;;;;;;5077810;28;20035;-90
2022/10/19 02:36:12;;;;;;;62.22;20.30;;;11.20;99.90;;;;;;5079785;28;20016;-89
2022/10/19 02:38:39;;;;;;;62.83;19.67;;;11.10;99.90;;;;;;5082126;28;20118;-89
2022/10/19 02:41:07;;;;;;;59.63;20.92;;;11.00;99.90;;;;;;5079296;28;20047;-89
2022/10/19 02:43:38;;;;;;;61.90;20.42;;;11.00;99.90;;;;;;5066709;28;20024;-84
2022/10/19 02:46:33;;;;;;;60.42;19.90;;;11.00;99.90;;;;;;5079213;28;20048;-84
2022/10/19 02:49:02;;;;;;;66.13;21.30;;;10.80;99.90;;;;;;5056270;28;20475;-86
2022/10/19 02:51:53;;;;;;;63.53;19.73;;;10.70;99.90;;;;;;5087720;28;20100;-85
2022/10/19 02:54:19;;;;;;;62.10;19.48;;;10.70;99.90;;;;;;5076319;28;20041;-85
2022/10/19 02:56:44;;;;;;;56.08;19.27;;;10.70;99.90;;;;;;5109080;27;20029;-85
2022/10/19 02:59:10;;;;;;;66.32;21.52;;;10.60;99.90;;;;;;5085993;28;20506;-85
2022/10/19 03:01:36;;;;;;;65.97;20.60;;;10.60;99.90;;;;;;5089993;28;20043;-85
2022/10/19 03:04:14;;;;;;;70.53;23.38;;;10.50;99.90;;;;;;5070924;28;20028;-85
2022/10/19 03:06:40;;;;;;;70.22;22.45;;;10.60;99.90;;;;;;5074679;28;20032;-85
2022/10/19 03:09:06;;;;;;;72.90;21.95;;;10.50;99.90;;;;;;5071838;28;20030;-85
2022/10/19 03:11:31;;;;;;;56.53;20.52;;;10.50;99.90;;;;;;5077013;28;20028;-85
2022/10/19 03:13:57;;;;;;;71.95;22.48;;;10.50;99.90;;;;;;5065221;28;20031;-85
2022/10/19 03:16:38;;;;;;;63.00;21.05;;;10.40;99.90;;;;;;5068520;28;20028;-85
2022/10/19 03:19:04;;;;;;;73.00;25.67;;;10.50;99.90;;;;;;5049176;28;20021;-85
2022/10/19 03:21:29;;;;;;;83.05;26.25;;;10.40;99.90;;;;;;5053790;28;20033;-85
2022/10/19 03:23:55;;;;;;;70.13;23.70;;;10.30;99.90;;;;;;5103206;28;20025;-85
2022/10/19 03:26:21;;;;;;;76.90;24.77;;;10.20;99.90;;;;;;5055494;28;20033;-85
2022/10/19 03:29:20;;;;;;;78.57;24.80;;;10.20;99.90;;;;;;5086696;28;20060;-84
2022/10/19 03:31:52;;;;;;;93.68;26.88;;;10.20;99.90;;;;;;5058925;28;20376;-86
2022/10/19 03:34:18;;;;;;;79.70;26.30;;;10.20;99.90;;;;;;5058315;28;20020;-85
2022/10/19 03:36:44;;;;;;;87.30;27.27;;;10.20;99.90;;;;;;5081989;28;20490;-84
2022/10/19 03:39:12;;;;;;;83.57;27.95;;;10.20;99.90;;;;;;5076898;28;20054;-84
2022/10/19 03:41:38;;;;;;;89.10;27.65;;;10.20;99.90;;;;;;5077282;28;20052;-85
2022/10/19 03:44:05;;;;;;;89.70;26.98;;;10.30;99.90;;;;;;5077537;28;20172;-84
2022/10/19 03:46:31;;;;;;;86.60;26.63;;;10.30;99.90;;;;;;5062851;28;20028;-85
2022/10/19 03:48:57;;;;;;;81.75;26.40;;;10.30;99.90;;;;;;5078233;28;20386;-85
2022/10/19 03:51:25;;;;;;;85.72;28.70;;;10.30;99.90;;;;;;5056702;28;20103;-85
2022/10/19 03:53:53;;;;;;;91.80;27.23;;;10.30;99.90;;;;;;5094670;28;20021;-84
2022/10/19 03:56:21;;;;;;;90.70;27.27;;;10.30;99.90;;;;;;5059867;28;20055;-85
2022/10/19 03:58:49;;;;;;;93.35;27.70;;;10.30;99.90;;;;;;5060292;28;20025;-85
2022/10/19 04:01:23;;;;;;;98.03;28.17;;;10.30;99.90;;;;;;5060071;28;20028;-85
2022/10/19 04:03:57;;;;;;;87.75;26.90;;;10.30;99.90;;;;;;5065610;28;20029;-85
2022/10/19 04:06:25;;;;;;;95.32;27.15;;;10.30;99.90;;;;;;5059192;28;20042;-84
2022/10/19 04:08:51;;;;;;;99.18;26.42;;;10.40;99.90;;;;;;5095442;28;20029;-85
2022/10/19 04:11:20;;;;;;;88.55;26.60;;;10.30;99.90;;;;;;5073645;28;20024;-85
2022/10/19 04:13:49;;;;;;;89.55;25.73;;;10.20;99.90;;;;;;5079759;28;20043;-85
2022/10/19 04:16:14;;;;;;;90.47;24.95;;;10.20;99.90;;;;;;5078129;28;20028;-84
2022/10/19 04:18:40;;;;;;;87.55;24.38;;;10.30;99.90;;;;;;5071098;28;20029;-85
2022/10/19 04:21:06;;;;;;;74.30;23.75;;;10.20;99.90;;;;;;5078921;28;20024;-85
2022/10/19 04:23:35;;;;;;;94.95;25.85;;;10.10;99.90;;;;;;5056593;28;20406;-85
2022/10/19 04:26:06;;;;;;;80.45;25.70;;;10.20;99.90;;;;;;5062902;28;20348;-85
2022/10/19 04:28:32;;;;;;;;;;;10.20;99.90;;;;;;5076508;28;20024;-84
2022/10/19 04:31:03;;;;;;;85.68;24.52;;;10.30;99.90;;;;;;5063645;28;19915;-85
2022/10/19 04:33:28;;;;;;;89.88;25.08;;;10.30;99.90;;;;;;5078806;28;20035;-84
2022/10/19 04:36:02;;;;;;;95.43;24.13;;;10.30;99.90;;;;;;5070660;28;20040;-85
2022/10/19 04:38:28;;;;;;;87.10;24.27;;;10.40;99.90;;;;;;5061963;28;20118;-85
2022/10/19 04:40:54;;;;;;;86.00;24.23;;;10.30;99.90;;;;;;5056426;28;20107;-85
2022/10/19 04:43:20;;;;;;;103.70;25.88;;;10.30;99.90;;;;;;5056920;28;20059;-85
2022/10/19 04:45:46;;;;;;;103.30;26.27;;;10.20;99.90;;;;;;5063475;28;20060;-85
2022/10/19 04:48:12;;;;;;;92.47;24.90;;;10.20;99.90;;;;;;5072886;28;20028;-85
2022/10/19 04:50:38;;;;;;;88.93;25.30;;;10.20;99.90;;;;;;5058477;28;20032;-85
2022/10/19 04:53:03;;;;;;;93.47;25.00;;;10.20;99.90;;;;;;5088663;28;20111;-84
2022/10/19 04:55:29;;;;;;;85.15;23.67;;;10.20;99.90;;;;;;5078909;28;20039;-84
2022/10/19 04:57:55;;;;;;;103.82;26.65;;;10.20;99.90;;;;;;5073222;28;20043;-84
2022/10/19 05:00:20;;;;;;;104.70;25.65;;;10.10;99.90;;;;;;5069605;28;20763;-85
2022/10/19 05:02:46;;;;;;;77.32;23.67;;;10.10;99.90;;;;;;5071330;28;20372;-84
2022/10/19 05:05:13;;;;;;;87.07;24.10;;;10.10;99.90;;;;;;5076152;28;20024;-84
2022/10/19 05:07:39;;;;;;;95.32;25.02;;;10.10;99.90;;;;;;5082345;28;20042;-84
2022/10/19 05:10:05;;;;;;;87.65;23.05;;;10.20;99.90;;;;;;5073847;28;20037;-84
2022/10/19 05:12:31;;;;;;;71.22;22.95;;;10.10;99.90;;;;;;5100214;28;20032;-84
2022/10/19 05:14:57;;;;;;;77.05;25.25;;;10.00;99.90;;;;;;5056438;28;20113;-84
2022/10/19 05:17:22;;;;;;;92.20;26.13;;;9.90;99.90;;;;;;5085032;28;20574;-84
2022/10/19 05:19:48;;;;;;;73.65;23.88;;;10.00;99.90;;;;;;5065295;28;20040;-84
2022/10/19 05:22:14;;;;;;;71.30;22.17;;;10.00;99.90;;;;;;5058820;28;20065;-84
2022/10/19 05:24:39;;;;;;;83.82;24.33;;;10.00;99.90;;;;;;5085059;28;20027;-84
2022/10/19 05:27:05;;;;;;;66.25;20.90;;;10.00;99.90;;;;;;5059594;28;20044;-84
2022/10/19 05:30:08;;;;;;;80.38;23.45;;;10.00;99.90;;;;;;5082955;28;20028;-85
2022/10/19 05:33:24;;;;;;;79.15;23.02;;;10.00;99.90;;;;;;5071303;28;20116;-85
2022/10/19 05:35:49;;;;;;;81.78;24.23;;;10.10;99.90;;;;;;5053517;28;20064;-85
2022/10/19 05:38:15;;;;;;;70.75;23.23;;;10.10;99.90;;;;;;5060649;28;20056;-84
2022/10/19 05:40:45;;;;;;;74.43;23.05;;;10.10;99.90;;;;;;5055434;28;20112;-85
2022/10/19 05:43:11;;;;;;;81.05;24.00;;;10.10;99.90;;;;;;5078981;28;20808;-85
2022/10/19 05:45:36;;;;;;;65.60;21.85;;;10.10;99.90;;;;;;5058268;28;20027;-85
2022/10/19 05:48:02;;;;;;;77.40;22.90;;;10.00;99.90;;;;;;5062994;28;20600;-85
2022/10/19 05:50:28;;;;;;;59.38;19.70;;;10.00;99.90;;;;;;5059682;28;20387;-85
2022/10/19 05:52:53;;;;;;;54.20;18.63;;;9.90;99.90;;;;;;5062639;28;20041;-87
2022/10/19 05:55:19;;;;;;;53.53;17.70;;;9.80;99.90;;;;;;5049863;28;20027;-88
2022/10/19 05:58:03;;;;;;;50.05;17.70;;;9.70;99.90;;;;;;5072558;28;20032;-87
2022/10/19 06:00:29;;;;;;;62.75;18.95;;;9.60;99.90;;;;;;5062387;28;20024;-88
2022/10/19 06:02:55;;;;;;;48.47;17.80;;;9.60;99.90;;;;;;5060130;28;20524;-87
2022/10/19 06:05:20;;;;;;;52.05;20.08;;;9.60;99.90;;;;;;5060908;28;20021;-87
2022/10/19 06:07:46;;;;;;;51.03;20.55;;;9.70;99.90;;;;;;5104321;28;20043;-88
2022/10/19 06:10:11;;;;;;;49.67;20.83;;;9.70;99.90;;;;;;5063067;28;20487;-88
2022/10/19 06:12:37;;;;;;;67.05;23.52;;;9.70;99.90;;;;;;5073873;28;20618;-88
2022/10/19 06:15:03;;;;;;;60.83;22.48;;;9.80;99.90;;;;;;5078065;28;20403;-88
2022/10/19 06:17:29;;;;;;;64.82;23.33;;;9.90;99.90;;;;;;5088267;28;20047;-87
2022/10/19 06:19:54;;;;;;;69.40;23.55;;;10.00;99.90;;;;;;5069481;28;20020;-88
2022/10/19 06:22:20;;;;;;;65.75;21.38;;;10.10;99.90;;;;;;5072568;28;20044;-88
2022/10/19 06:24:46;;;;;;;57.78;21.27;;;10.20;99.90;;;;;;5103301;28;20032;-87
2022/10/19 06:27:12;;;;;;;62.30;23.48;;;10.20;99.90;;;;;;5058475;28;20190;-88
2022/10/19 06:29:37;;;;;;;64.07;21.25;;;10.30;99.90;;;;;;5104211;28;20458;-88
2022/10/19 06:32:21;;;;;;;66.20;19.80;;;10.50;99.90;;;;;;5061320;28;20845;-88
2022/10/19 06:34:47;;;;;;;60.45;20.45;;;10.50;99.90;;;;;;5092134;28;20059;-87
2022/10/19 06:37:12;;;;;;;67.20;21.50;;;10.50;99.90;;;;;;5064908;28;20028;-87
2022/10/19 06:39:38;;;;;;;58.08;18.70;;;10.50;99.90;;;;;;5090158;28;20070;-87
2022/10/19 06:42:04;;;;;;;59.35;18.73;;;10.40;99.90;;;;;;5086780;28;20040;-88
2022/10/19 06:44:29;;;;;;;59.15;17.98;;;10.40;99.90;;;;;;5089334;28;20195;-88
2022/10/19 06:46:55;;;;;;;56.13;18.10;;;10.50;99.90;;;;;;5072915;28;20029;-88
2022/10/19 06:49:21;;;;;;;57.97;17.50;;;10.40;99.90;;;;;;5058608;28;20090;-87
2022/10/19 06:51:46;;;;;;;53.83;17.67;;;10.40;99.90;;;;;;5091461;28;20452;-88
2022/10/19 06:54:12;;;;;;;60.92;17.05;;;10.40;99.90;;;;;;5065045;28;20532;-88
2022/10/19 06:56:37;;;;;;;49.17;16.33;;;10.40;99.90;;;;;;5107205;27;20028;-88
2022/10/19 06:59:03;;;;;;;56.85;17.45;;;10.30;99.90;;;;;;5072860;28;20028;-88
2022/10/19 07:01:29;;;;;;;61.55;17.60;;;10.30;99.90;;;;;;5074279;28;20104;-88
2022/10/19 07:03:55;;;;;;;53.83;16.52;;;10.20;99.90;;;;;;5104856;28;20185;-88
2022/10/19 07:06:21;;;;;;;67.10;19.08;;;10.30;99.90;;;;;;5078653;28;20028;-88
2022/10/19 07:08:46;;;;;;;51.17;16.35;;;10.50;99.90;;;;;;5062911;28;20036;-88
2022/10/19 07:11:17;;;;;;;46.53;15.85;;;10.60;99.90;;;;;;5062804;28;20475;-88
2022/10/19 07:13:43;;;;;;;51.78;16.25;;;10.70;99.90;;;;;;5081169;28;20043;-88
2022/10/19 07:16:11;;;;;;;58.90;16.40;;;10.90;99.90;;;;;;5062648;28;20106;-88
2022/10/19 07:18:38;;;;;;;60.25;17.17;;;10.90;99.90;;;;;;5072553;28;20534;-89
2022/10/19 07:24:59;;;;;;;65.90;18.88;;;11.10;99.90;;;;;;5073353;28;20043;-88
2022/10/19 07:27:25;;;;;;;56.83;17.05;;;11.30;99.90;;;;;;5047063;28;20032;-89
2022/10/19 07:29:50;;;;;;;69.10;22.35;;;11.50;99.90;;;;;;5105296;28;20032;-88
2022/10/19 07:32:16;;;;;;;70.82;20.75;;;11.70;99.90;;;;;;5075842;28;20075;-89
2022/10/19 07:34:41;;;;;;;77.97;25.17;;;11.80;99.90;;;;;;5090131;28;20029;-88
2022/10/19 07:37:16;;;;;;;76.65;23.20;;;12.00;99.90;;;;;;5070913;28;20029;-88
2022/10/19 07:39:42;;;;;;;75.30;23.95;;;12.10;99.90;;;;;;5091154;28;20036;-88
2022/10/19 07:42:07;;;;;;;62.80;21.63;;;12.20;99.90;;;;;;5068879;28;20025;-90
2022/10/19 07:44:33;;;;;;;68.38;22.70;;;12.30;99.90;;;;;;5090090;28;20023;-89
2022/10/19 07:46:59;;;;;;;68.97;22.80;;;12.60;99.90;;;;;;5072589;28;20062;-89
2022/10/19 07:49:24;;;;;;;62.90;21.58;;;12.90;99.90;;;;;;5058265;28;20112;-90
2022/10/19 07:51:52;;;;;;;62.85;20.95;;;13.00;99.90;;;;;;5093389;28;20040;-90
2022/10/19 07:54:19;;;;;;;67.30;22.17;;;13.00;99.90;;;;;;5063523;28;20033;-90
2022/10/19 07:56:44;;;;;;;60.13;18.75;;;13.20;99.90;;;;;;5092469;28;20091;-89
2022/10/19 07:59:10;;;;;;;64.65;23.02;;;13.00;99.90;;;;;;5085095;28;20459;-91
2022/10/19 08:01:40;;;;;;;60.00;19.63;;;12.90;99.90;;;;;;5090850;28;20029;-91
2022/10/19 08:04:06;;;;;;;56.13;19.80;;;12.70;99.90;;;;;;5071523;28;20374;-90
2022/10/19 08:06:32;;;;;;;62.90;19.95;;;12.70;99.90;;;;;;5059402;28;20085;-90
2022/10/19 08:09:04;;;;;;;71.40;20.40;;;12.60;99.90;;;;;;5085757;28;20020;-90
2022/10/19 08:11:34;;;;;;;77.50;20.08;;;12.50;99.90;;;;;;5062099;28;20371;-89
2022/10/19 08:14:01;;;;;;;59.78;18.92;;;12.60;99.90;;;;;;5055403;28;20055;-89
2022/10/19 08:16:39;;;;;;;54.83;17.70;;;12.70;99.90;;;;;;5063291;28;20020;-90
2022/10/19 08:19:15;;;;;;;57.28;17.50;;;12.80;99.90;;;;;;5058558;28;20036;-91
2022/10/19 08:21:43;;;;;;;45.05;16.60;;;12.80;99.90;;;;;;5062305;28;20118;-89
2022/10/19 08:24:09;;;;;;;55.70;17.00;;;12.80;99.90;;;;;;5111261;27;20020;-90
2022/10/19 08:26:37;;;;;;;47.13;16.23;;;12.80;99.90;;;;;;5063684;28;20135;-90
2022/10/19 08:29:06;;;;;;;40.20;16.15;;;12.90;99.90;;;;;;5061366;28;20421;-88
2022/10/19 08:31:31;;;;;;;39.55;15.63;;;13.10;99.90;;;;;;5065303;28;20105;-89
2022/10/19 08:33:57;;;;;;;37.67;15.85;;;13.40;99.90;;;;;;5055675;28;20017;-89
2022/10/19 08:36:23;;;;;;;39.72;15.50;;;13.60;99.90;;;;;;5079341;28;20118;-89
2022/10/19 08:38:49;;;;;;;34.13;14.80;;;13.70;99.90;;;;;;5075750;28;20032;-90
2022/10/19 08:41:21;;;;;;;29.45;13.20;;;14.20;99.90;;;;;;5095533;28;20024;-90
2022/10/19 08:44:19;;;;;;;28.35;12.80;;;14.40;99.90;;;;;;5078183;28;20044;-90
2022/10/19 08:46:47;;;;;;;30.75;12.45;;;14.00;99.90;;;;;;5070271;28;20040;-89
2022/10/19 08:49:18;;;;;;;20.58;11.57;;;14.20;99.90;;;;;;5058298;28;20025;-90
2022/10/19 08:51:52;;;;;;;19.98;10.90;;;14.30;99.90;;;;;;5090270;28;20338;-88
2022/10/19 08:54:18;;;;;;;18.52;9.32;;;14.70;99.90;;;;;;5062284;28;20033;-87
2022/10/19 08:57:03;;;;;;;17.95;10.05;;;14.60;99.90;;;;;;5073843;28;20028;-90
2022/10/19 08:59:38;;;;;;;16.63;8.57;;;14.50;99.90;;;;;;5062252;28;20056;-90
2022/10/19 09:02:27;;;;;;;20.42;11.13;;;14.50;99.90;;;;;;5048718;28;20020;-90
2022/10/19 09:05:00;;;;;;;14.52;8.50;;;14.80;99.90;;;;;;5065893;28;20083;-91
2022/10/19 09:07:29;;;;;;;14.38;8.13;;;14.80;99.90;;;;;;5066730;28;20063;-90
2022/10/19 09:10:16;;;;;;;15.05;7.95;;;14.50;99.90;;;;;;5059306;28;20028;-91
2022/10/19 09:13:04;;;;;;;13.10;7.28;;;14.40;99.90;;;;;;5069748;28;20032;-90
2022/10/19 09:15:43;;;;;;;13.43;7.13;;;14.70;99.90;;;;;;5072871;28;20059;-91
2022/10/19 09:18:29;;;;;;;11.52;7.38;;;14.80;99.90;;;;;;5054625;28;20063;-89
2022/10/19 09:21:35;;;;;;;10.85;6.82;;;15.10;99.90;;;;;;5079323;28;20043;-91
2022/10/19 09:24:25;;;;;;;7.85;5.65;;;15.50;99.90;;;;;;5058177;28;20025;-90
2022/10/19 09:27:01;;;;;;;12.93;5.60;;;15.70;99.90;;;;;;5060422;28;20024;-90
2022/10/19 09:29:39;;;;;;;8.18;5.57;;;15.60;99.90;;;;;;5084004;28;20032;-90
2022/10/19 09:32:12;;;;;;;8.73;5.80;;;15.40;99.90;;;;;;5054666;28;20029;-92
2022/10/19 09:35:06;;;;;;;11.10;6.22;;;15.70;99.90;;;;;;5074683;28;20473;-89
2022/10/19 09:37:38;;;;;;;12.88;7.47;;;15.80;99.90;;;;;;5050399;28;20464;-90
2022/10/19 09:40:05;;;;;;;12.60;5.80;;;15.90;99.90;;;;;;5081610;28;20027;-91
2022/10/19 09:42:32;;;;;;;8.98;6.15;;;15.90;99.90;;;;;;5067128;28;20021;-91
2022/10/19 09:45:00;;;;;;;8.65;5.63;;;16.00;99.90;;;;;;5059195;28;20037;-90
2022/10/19 09:47:36;;;;;;;6.63;5.13;;;15.70;99.90;;;;;;5085569;28;20025;-91
2022/10/19 09:50:25;;;;;;;10.05;5.40;;;15.30;99.90;;;;;;5070553;28;20114;-91
2022/10/19 09:52:56;;;;;;;10.75;4.82;;;15.30;99.90;;;;;;5058720;28;20455;-91
2022/10/19 09:55:27;;;;;;;6.60;5.13;;;15.00;99.90;;;;;;5083689;28;20027;-91
2022/10/19 09:58:14;;;;;;;7.38;5.88;;;14.80;99.90;;;;;;5061662;28;20044;-89
2022/10/19 10:00:44;;;;;;;10.02;6.57;;;14.60;99.90;;;;;;5066374;28;20024;-90
2022/10/19 10:03:39;;;;;;;10.07;6.30;;;14.50;99.90;;;;;;5063906;28;20051;-90
2022/10/19 10:06:13;;;;;;;6.60;5.43;;;14.70;99.90;;;;;;5050864;28;20036;-90
2022/10/19 10:08:56;;;;;;;8.68;5.50;;;14.80;99.90;;;;;;5063835;28;20059;-90
2022/10/19 10:11:44;;;;;;;8.00;4.80;;;14.90;99.90;;;;;;5064502;28;20028;-90
2022/10/19 10:14:31;;;;;;;10.95;4.80;;;15.30;99.90;;;;;;5060389;28;20102;-90
2022/10/19 10:17:05;;;;;;;6.47;4.88;;;15.40;99.90;;;;;;5072496;28;20159;-90
2022/10/19 10:19:34;;;;;;;10.77;5.10;;;15.50;99.90;;;;;;5083983;28;20024;-90
2022/10/19 10:22:24;;;;;;;7.30;5.28;;;15.30;99.90;;;;;;5055954;28;20462;-89
2022/10/19 10:24:54;;;;;;;7.35;4.65;;;15.10;99.90;;;;;;5088200;28;20028;-90
2022/10/19 10:27:29;;;;;;;7.35;5.60;;;15.10;99.90;;;;;;5058481;28;20032;-91
2022/10/19 10:29:55;;;;;;;8.75;5.90;;;15.20;99.90;;;;;;5090852;28;20061;-90
2022/10/19 10:32:21;;;;;;;8.75;5.32;;;14.90;99.90;;;;;;5059596;28;20111;-89
2022/10/19 10:35:15;;;;;;;8.02;5.78;;;14.90;99.90;;;;;;5076558;28;20503;-89
2022/10/19 10:37:46;;;;;;;11.90;6.40;;;14.70;99.90;;;;;;5068405;28;20033;-89
2022/10/19 10:40:30;;;;;;;10.75;6.47;;;14.60;99.90;;;;;;5063349;28;20088;-90
2022/10/19 10:43:08;;;;;;;13.23;7.03;;;14.50;99.90;;;;;;5083232;28;20034;-90
2022/10/19 10:45:40;;;;;;;10.48;6.95;;;14.30;99.90;;;;;;5062968;28;20026;-90
2022/10/19 10:48:25;;;;;;;11.45;6.65;;;14.10;99.90;;;;;;5084149;28;20044;-91
2022/10/19 10:50:51;;;;;;;11.73;7.45;;;14.10;99.90;;;;;;5058515;28;20039;-90
2022/10/19 10:53:37;;;;;;;14.63;8.13;;;14.00;99.90;;;;;;5080251;28;20035;-90
2022/10/19 10:56:04;;;;;;;17.13;8.45;;;14.00;99.90;;;;;;5072739;28;20028;-89
2022/10/19 10:58:53;;;;;;;11.98;7.45;;;14.20;99.90;;;;;;5085236;28;20062;-91
2022/10/19 11:01:22;;;;;;;15.85;7.88;;;14.40;99.90;;;;;;5056672;28;20423;-91
2022/10/19 11:03:58;;;;;;;13.10;9.02;;;14.40;99.90;;;;;;5086795;28;20395;-91
2022/10/19 11:06:25;;;;;;;14.35;8.43;;;14.30;99.90;;;;;;5078688;28;20024;-89
2022/10/19 11:08:57;;;;;;;11.43;7.47;;;14.50;99.90;;;;;;5085372;28;20096;-91
2022/10/19 11:11:40;;;;;;;11.35;7.70;;;14.50;99.90;;;;;;5063627;28;20027;-90
2022/10/19 11:14:25;;;;;;;13.30;7.68;;;14.50;99.90;;;;;;5058715;28;20039;-89
2022/10/19 11:16:53;;;;;;;11.80;7.95;;;14.40;99.90;;;;;;5059313;28;20067;-89
2022/10/19 11:19:22;;;;;;;16.77;8.73;;;14.30;99.90;;;;;;5080436;28;20051;-90
2022/10/19 11:22:02;;;;;;;11.77;8.23;;;14.30;99.90;;;;;;5078148;28;20032;-90
2022/10/19 11:24:41;;;;;;;9.67;7.50;;;14.60;99.90;;;;;;5084403;28;20020;-89
2022/10/19 11:27:28;;;;;;;14.82;8.10;;;14.80;99.90;;;;;;5055949;28;20116;-89
2022/10/19 11:30:03;;;;;;;12.57;8.52;;;15.00;99.90;;;;;;5089756;28;20052;-91
2022/10/19 11:32:28;;;;;;;10.85;8.05;;;14.80;99.90;;;;;;5075095;28;20029;-89
2022/10/19 11:35:03;;;;;;;11.57;8.35;;;14.50;99.90;;;;;;5077777;28;20016;-89
2022/10/19 11:37:36;;;;;;;13.38;8.30;;;14.50;99.90;;;;;;5077828;28;20436;-89
2022/10/19 11:40:22;;;;;;;13.88;9.00;;;14.40;99.90;;;;;;5055346;28;20024;-90
2022/10/19 11:42:54;;;;;;;15.23;9.18;;;14.50;99.90;;;;;;5079893;28;20025;-89
2022/10/19 11:45:28;;;;;;;;;;;14.40;99.90;;;;;;5063343;28;20034;-90
2022/10/19 11:48:32;;;;;;;13.98;9.48;;;14.40;99.90;;;;;;5065868;28;19908;-90
2022/10/19 11:51:08;;;;;;;15.77;9.82;;;14.20;99.90;;;;;;5054694;28;20032;-89
2022/10/19 11:54:04;;;;;;;13.38;8.90;;;14.40;99.90;;;;;;5083293;28;20028;-90
2022/10/19 11:56:36;;;;;;;12.18;8.27;;;14.80;99.90;;;;;;5059289;28;20143;-90
2022/10/19 11:59:39;;;;;;;13.00;7.53;;;15.00;99.90;;;;;;5058186;28;20028;-88
2022/10/19 12:02:39;;;;;;;12.27;8.30;;;15.10;99.90;;;;;;5056954;28;20034;-89
2022/10/19 12:05:26;;;;;;;16.35;8.73;;;15.30;99.90;;;;;;5076382;28;20048;-90
2022/10/19 12:08:27;;;;;;;14.18;9.18;;;15.20;99.90;;;;;;5086687;28;20480;-90
2022/10/19 12:11:02;;;;;;;13.80;7.93;;;14.90;99.90;;;;;;5078884;28;20516;-91
2022/10/19 12:13:50;;;;;;;11.13;6.85;;;14.90;99.90;;;;;;5066101;28;20052;-88
2022/10/19 12:16:19;;;;;;;14.88;8.63;;;15.10;99.90;;;;;;5055013;28;20032;-89
2022/10/19 12:18:52;;;;;;;13.57;8.15;;;15.20;99.90;;;;;;5056348;28;20515;-88
2022/10/19 12:21:24;;;;;;;14.98;8.60;;;15.20;99.90;;;;;;5063972;28;20054;-89
2022/10/19 12:23:51;;;;;;;17.63;9.10;;;15.30;99.90;;;;;;5075040;28;20028;-90
2022/10/19 12:26:20;;;;;;;18.67;9.82;;;15.10;99.90;;;;;;5064018;28;20506;-86
2022/10/19 12:29:11;;;;;;;17.10;10.23;;;14.90;99.90;;;;;;5066744;28;20042;-88
2022/10/19 12:31:36;;;;;;;17.75;9.63;;;14.60;99.90;;;;;;5064125;28;20031;-88
2022/10/19 12:34:14;;;;;;;16.80;10.15;;;14.70;99.90;;;;;;5073259;28;20111;-90
2022/10/19 12:36:48;;;;;;;20.33;11.27;;;14.60;99.90;;;;;;5100584;28;20040;-89
2022/10/19 12:39:42;;;;;;;22.88;11.75;;;14.40;99.90;;;;;;5072346;28;20024;-87
2022/10/19 12:42:14;;;;;;;17.13;10.40;;;14.30;99.90;;;;;;5059003;28;20028;-88
2022/10/19 12:45:18;;;;;;;24.38;10.73;;;14.20;99.90;;;;;;5090539;28;20108;-89
2022/10/19 12:48:11;;;;;;;20.98;11.82;;;14.30;99.90;;;;;;5080296;28;20067;-89
2022/10/19 12:50:51;;;;;;;18.65;10.63;;;14.40;99.90;;;;;;5059961;28;20028;-88
2022/10/19 12:53:43;;;;;;;17.77;11.50;;;14.60;99.90;;;;;;5094211;28;20036;-89
2022/10/19 12:56:09;;;;;;;23.60;12.98;;;14.60;99.90;;;;;;5053951;28;20040;-89
2022/10/19 12:58:40;;;;;;;18.63;11.52;;;14.60;99.90;;;;;;5100111;28;20785;-88
2022/10/19 13:01:07;;;;;;;21.45;12.10;;;14.50;99.90;;;;;;5057794;28;20036;-90
2022/10/19 13:03:37;;;;;;;21.77;12.52;;;14.40;99.90;;;;;;5080512;28;20019;-88
2022/10/19 13:06:31;;;;;;;19.00;11.27;;;14.00;99.90;;;;;;5060848;28;20552;-89
2022/10/19 13:09:03;;;;;;;22.00;11.48;;;14.10;99.90;;;;;;5067480;28;20487;-89